Houghton, Michigan
Current Conditions -  °F | °C
As of 1:53 AM on Saturday 25 Oct 2014 (Local Time) from KCMX Reporting Station
Clear Clear  
Wind Chill: 59°   Ceiling: Unl
Heat Index: 59°   Visibility: 10mi
Dew Point: 47°   Wind: 24mph
Humidity: 64%   Direction: 260°W
Pressure: 29.64"   Gusts: 37mph
Location:  47.12°N, 88.57°W
Report Text: KCMX 250553Z AUTO 26021G32KT 10SM CLR 15/08 A2964 RMK AO2 PK WND 27033/0527 SLP037 T01500083 10156 20122 56015
Loading
Personal Weather Stations






























Interactive Weather Map New forecast layout! Learn more

10-Day Weather Forecast

Advertisements
Track Severe Weather on mobile